Time;durP1;ratioP1;P1;durP2;ratioP2;P2;SDS_P1;SDS_P2;PMS_P1;PMS_P2;Temp;Humidity;BMP_temperature;BMP_pressure;BME280_temperature;BME280_humidity;BME280_pressure;Samples;Min_cycle;Max_cycle;Signal;HPM_P1;HPM_P2
2022/08/26 00:01:26;;;;;;;11.60;9.32;;;23.00;99.90;;;;;;5032133;28;20183;-52
2022/08/26 00:03:52;;;;;;;10.43;9.07;;;23.00;99.90;;;;;;5031828;28;20190;-52
2022/08/26 00:06:18;;;;;;;12.43;9.25;;;23.00;99.90;;;;;;5032119;28;20175;-53
2022/08/26 00:08:44;;;;;;;13.57;9.60;;;23.00;99.90;;;;;;5032120;28;20300;-53
2022/08/26 00:11:09;;;;;;;12.90;9.52;;;23.00;99.90;;;;;;5032050;28;20650;-53
2022/08/26 00:13:35;;;;;;;11.10;9.35;;;23.00;99.90;;;;;;5031544;28;20196;-54
2022/08/26 00:16:02;;;;;;;11.15;9.13;;;23.00;99.90;;;;;;5031924;28;20202;-54
2022/08/26 00:18:28;;;;;;;12.32;9.23;;;23.00;99.90;;;;;;5031853;28;20539;-50
2022/08/26 00:20:54;;;;;;;11.40;9.23;;;23.00;99.90;;;;;;5031897;28;20171;-51
2022/08/26 00:23:20;;;;;;;12.95;9.90;;;23.00;99.90;;;;;;5031356;28;20225;-53
2022/08/26 00:25:46;;;;;;;12.00;9.57;;;23.00;99.90;;;;;;5031710;28;20179;-54
2022/08/26 00:28:12;;;;;;;13.23;9.20;;;22.90;99.90;;;;;;5031992;28;20262;-50
2022/08/26 00:30:37;;;;;;;10.80;9.23;;;22.90;99.90;;;;;;5031675;28;20224;-50
2022/08/26 00:33:04;;;;;;;11.32;9.40;;;22.90;99.90;;;;;;5031220;28;20281;-57
2022/08/26 00:35:31;;;;;;;14.55;10.18;;;22.90;99.90;;;;;;5031540;28;20194;-52
2022/08/26 00:37:57;;;;;;;11.95;9.55;;;22.90;99.90;;;;;;5031748;28;20175;-52
2022/08/26 00:40:32;;;;;;;12.45;9.35;;;22.90;99.90;;;;;;5031408;28;20233;-53
2022/08/26 00:42:59;;;;;;;12.02;8.95;;;22.80;99.90;;;;;;5031553;28;20202;-54
2022/08/26 00:45:25;;;;;;;12.60;9.60;;;22.80;99.90;;;;;;5031015;28;20210;-54
2022/08/26 00:47:54;;;;;;;11.68;9.65;;;22.80;99.90;;;;;;5031376;28;20184;-52
2022/08/26 00:50:25;;;;;;;11.85;9.48;;;22.80;99.90;;;;;;5031378;28;20186;-57
2022/08/26 00:52:53;;;;;;;11.93;9.43;;;22.80;99.90;;;;;;5029945;28;20209;-50
2022/08/26 00:55:32;;;;;;;14.48;9.70;;;22.80;99.90;;;;;;5030899;28;20205;-56
2022/08/26 00:57:59;;;;;;;12.75;9.55;;;22.80;99.90;;;;;;5031210;28;20219;-50
2022/08/26 01:00:27;;;;;;;11.07;8.80;;;22.80;99.90;;;;;;5030640;28;20170;-50
2022/08/26 01:02:54;;;;;;;11.15;9.10;;;22.80;99.90;;;;;;5031072;28;20198;-54
2022/08/26 01:05:21;;;;;;;12.90;8.80;;;22.80;99.90;;;;;;5030814;28;20170;-50
2022/08/26 01:07:47;;;;;;;12.98;9.48;;;22.70;99.90;;;;;;5031177;28;20562;-56
2022/08/26 01:10:17;;;;;;;13.25;9.57;;;22.70;99.90;;;;;;5031068;28;20251;-55
2022/08/26 01:13:02;;;;;;;13.18;9.20;;;22.70;99.90;;;;;;5030990;28;20212;-51
2022/08/26 01:15:40;;;;;;;13.10;9.55;;;22.70;99.90;;;;;;5030824;28;20264;-55
2022/08/26 01:18:06;;;;;;;11.20;9.18;;;22.70;99.90;;;;;;5030987;28;20248;-55
2022/08/26 01:20:54;;;;;;;12.00;10.02;;;22.60;99.90;;;;;;5030872;28;20192;-51
2022/08/26 01:23:20;;;;;;;10.15;9.07;;;22.60;99.90;;;;;;5030506;28;20208;-58
2022/08/26 01:25:56;;;;;;;11.05;9.25;;;22.60;99.90;;;;;;5030701;28;20188;-55
2022/08/26 01:28:27;;;;;;;10.27;8.85;;;22.60;99.90;;;;;;5030727;28;20176;-52
2022/08/26 01:30:55;;;;;;;12.13;8.90;;;22.50;99.90;;;;;;5030775;28;20687;-51
2022/08/26 01:33:28;;;;;;;12.35;9.88;;;22.60;99.90;;;;;;5030326;28;20200;-57
2022/08/26 01:35:54;;;;;;;16.23;9.15;;;22.60;99.90;;;;;;5030888;28;20150;-53
2022/08/26 01:38:19;;;;;;;11.30;9.60;;;22.50;99.90;;;;;;5030726;28;20172;-56
2022/08/26 01:40:45;;;;;;;10.60;8.63;;;22.50;99.90;;;;;;5030798;28;20177;-56
2022/08/26 01:43:18;;;;;;;11.43;8.77;;;22.40;99.90;;;;;;5030472;28;20239;-54
2022/08/26 01:45:45;;;;;;;11.27;9.30;;;22.40;99.90;;;;;;5030766;28;20156;-55
2022/08/26 01:48:14;;;;;;;11.07;9.43;;;22.40;99.90;;;;;;5030658;28;20172;-55
2022/08/26 01:50:41;;;;;;;12.77;9.50;;;22.40;99.90;;;;;;5030681;28;20169;-52
2022/08/26 01:53:09;;;;;;;13.23;9.23;;;22.40;99.90;;;;;;5030129;28;20192;-55
2022/08/26 01:55:38;;;;;;;11.18;9.57;;;22.40;99.90;;;;;;5030638;28;20704;-55
2022/08/26 01:58:07;;;;;;;11.60;9.68;;;22.40;99.90;;;;;;5030594;28;20177;-50
2022/08/26 02:00:34;;;;;;;12.45;8.75;;;22.40;99.90;;;;;;5030516;28;20204;-50
2022/08/26 02:03:16;;;;;;;10.35;8.80;;;22.40;99.90;;;;;;5030458;28;20189;-49
2022/08/26 02:05:52;;;;;;;13.13;9.27;;;22.40;99.90;;;;;;5030464;28;20219;-50
2022/08/26 02:08:21;;;;;;;11.60;9.98;;;22.40;99.90;;;;;;5030549;28;20271;-50
2022/08/26 02:10:47;;;;;;;10.38;9.15;;;22.40;99.90;;;;;;5030759;28;20254;-49
2022/08/26 02:13:13;;;;;;;12.13;9.45;;;22.40;99.90;;;;;;5032481;28;20239;-55
2022/08/26 02:15:41;;;;;;;13.65;9.45;;;22.40;99.90;;;;;;5033924;28;20172;-50
2022/08/26 02:18:08;;;;;;;11.65;9.52;;;22.40;99.90;;;;;;5034122;28;20165;-52
2022/08/26 02:20:34;;;;;;;12.82;9.32;;;22.40;99.90;;;;;;5033875;28;20176;-51
2022/08/26 02:23:00;;;;;;;11.68;9.90;;;22.40;99.90;;;;;;5033862;28;20204;-53
2022/08/26 02:25:44;;;;;;;11.65;9.68;;;22.40;99.90;;;;;;5033749;28;20263;-49
2022/08/26 02:28:12;;;;;;;11.48;9.18;;;22.40;99.90;;;;;;5034035;28;20178;-51
2022/08/26 02:30:39;;;;;;;10.57;9.50;;;22.40;99.90;;;;;;5033927;28;20199;-50
2022/08/26 02:33:05;;;;;;;11.35;8.85;;;22.40;99.90;;;;;;5033551;28;20192;-52
2022/08/26 02:35:33;;;;;;;12.88;9.25;;;22.30;99.90;;;;;;5033789;28;20177;-50
2022/08/26 02:37:59;;;;;;;10.80;9.20;;;22.30;99.90;;;;;;5033779;28;20199;-55
2022/08/26 02:40:32;;;;;;;9.80;8.68;;;22.30;99.90;;;;;;5033772;28;20177;-54
2022/08/26 02:42:58;;;;;;;11.40;9.35;;;22.30;99.90;;;;;;5033738;28;20204;-49
2022/08/26 02:45:26;;;;;;;11.63;9.20;;;22.30;99.90;;;;;;5033408;28;20176;-51
2022/08/26 02:47:52;;;;;;;13.07;9.85;;;22.30;99.90;;;;;;5033564;28;20173;-54
2022/08/26 02:50:19;;;;;;;10.68;9.50;;;22.30;99.90;;;;;;5033594;28;20252;-50
2022/08/26 02:52:44;;;;;;;14.70;9.90;;;22.30;99.90;;;;;;5033420;28;20200;-50
2022/08/26 02:55:10;;;;;;;10.70;9.50;;;22.30;99.90;;;;;;5033101;28;20196;-50
2022/08/26 02:57:36;;;;;;;10.48;9.35;;;22.30;99.90;;;;;;5033445;28;20538;-52
2022/08/26 03:00:05;;;;;;;12.05;9.32;;;22.30;99.90;;;;;;5033524;28;20516;-54
2022/08/26 03:02:31;;;;;;;13.05;9.48;;;22.30;99.90;;;;;;5033081;28;20217;-52
2022/08/26 03:04:56;;;;;;;12.82;9.18;;;22.30;99.90;;;;;;5033029;28;20274;-55
2022/08/26 03:07:22;;;;;;;12.07;9.13;;;22.30;99.90;;;;;;5033176;28;20520;-50
2022/08/26 03:09:47;;;;;;;11.60;9.43;;;22.30;99.90;;;;;;5033333;28;20207;-51
2022/08/26 03:12:13;;;;;;;11.75;9.27;;;22.30;99.90;;;;;;5033053;28;20193;-52
2022/08/26 03:14:38;;;;;;;11.13;8.52;;;22.40;99.90;;;;;;5032813;28;20670;-49
2022/08/26 03:17:04;;;;;;;12.13;9.43;;;22.40;99.90;;;;;;5032899;28;20266;-50
2022/08/26 03:19:30;;;;;;;10.85;9.20;;;22.40;99.90;;;;;;5033141;28;20175;-51
2022/08/26 03:21:57;;;;;;;11.80;9.35;;;22.40;99.90;;;;;;5032740;28;20317;-49
2022/08/26 03:24:24;;;;;;;10.52;9.20;;;22.40;99.90;;;;;;5032305;28;20160;-50
2022/08/26 03:26:50;;;;;;;11.55;9.20;;;22.40;99.90;;;;;;5032845;28;20231;-53
2022/08/26 03:32:00;;;;;;;9.82;8.82;;;22.30;99.90;;;;;;5032744;28;20757;-49
2022/08/26 03:34:26;;;;;;;11.52;9.27;;;22.30;99.90;;;;;;5032329;28;20279;-52
2022/08/26 03:36:52;;;;;;;15.27;8.80;;;22.30;99.90;;;;;;5032770;28;20271;-52
2022/08/26 03:39:18;;;;;;;12.18;10.02;;;22.30;99.90;;;;;;5032821;28;20231;-54
2022/08/26 03:41:44;;;;;;;10.48;9.38;;;22.30;99.90;;;;;;5031997;28;20660;-55
2022/08/26 03:44:10;;;;;;;11.10;9.55;;;22.30;99.90;;;;;;5032057;28;20263;-55
2022/08/26 03:46:36;;;;;;;10.00;8.88;;;22.30;99.90;;;;;;5032170;28;20202;-52
2022/08/26 03:49:04;;;;;;;10.68;9.30;;;22.30;99.90;;;;;;5032207;28;20219;-56
2022/08/26 03:51:31;;;;;;;11.07;8.68;;;22.30;99.90;;;;;;5032504;28;20311;-53
2022/08/26 03:53:57;;;;;;;10.80;9.50;;;22.30;99.90;;;;;;5032513;28;20192;-52
2022/08/26 03:56:23;;;;;;;10.48;9.38;;;22.30;99.90;;;;;;5032615;28;20600;-53
2022/08/26 03:58:49;;;;;;;10.73;8.98;;;22.30;99.90;;;;;;5032307;28;20176;-52
2022/08/26 04:01:15;;;;;;;11.45;9.52;;;22.30;99.90;;;;;;5032254;28;20172;-56
2022/08/26 04:03:59;;;;;;;11.05;9.88;;;22.30;99.90;;;;;;5031694;28;20200;-52
2022/08/26 04:06:29;;;;;;;10.93;9.13;;;22.30;99.90;;;;;;5032155;28;20252;-57
2022/08/26 04:09:00;;;;;;;12.90;9.60;;;22.30;99.90;;;;;;5032406;28;20177;-55
2022/08/26 04:11:30;;;;;;;11.25;9.57;;;22.30;99.90;;;;;;5032056;28;20356;-56
2022/08/26 04:13:59;;;;;;;11.55;8.50;;;22.30;99.90;;;;;;5031424;28;20199;-55
2022/08/26 04:16:26;;;;;;;11.75;8.82;;;22.30;99.90;;;;;;5031860;28;20699;-56
2022/08/26 04:18:52;;;;;;;11.00;9.00;;;22.30;99.90;;;;;;5031758;28;20211;-50
2022/08/26 04:21:17;;;;;;;11.15;9.23;;;22.30;99.90;;;;;;5031613;28;20202;-54
2022/08/26 04:23:43;;;;;;;11.82;8.80;;;22.30;99.90;;;;;;5032685;28;20634;-57
2022/08/26 04:26:09;;;;;;;13.63;9.63;;;22.20;99.90;;;;;;5031818;28;20165;-54
2022/08/26 04:28:34;;;;;;;11.48;10.30;;;22.30;99.90;;;;;;5031681;28;20176;-55
2022/08/26 04:31:01;;;;;;;13.05;10.80;;;22.20;99.90;;;;;;5031699;28;20200;-56
2022/08/26 04:33:27;;;;;;;11.02;9.90;;;22.30;99.90;;;;;;5031221;28;20275;-56
2022/08/26 04:36:02;;;;;;;11.40;9.90;;;22.20;99.90;;;;;;5030718;28;20257;-53
2022/08/26 04:38:29;;;;;;;14.20;10.48;;;22.20;99.90;;;;;;5031470;28;20358;-58
2022/08/26 04:40:54;;;;;;;14.00;10.15;;;22.20;99.90;;;;;;5031571;28;20199;-54
2022/08/26 04:43:20;;;;;;;12.25;9.80;;;22.20;99.90;;;;;;5031053;28;20188;-51
2022/08/26 04:45:46;;;;;;;16.10;9.70;;;22.20;99.90;;;;;;5031338;28;20166;-51
2022/08/26 04:48:12;;;;;;;12.10;9.15;;;22.30;99.90;;;;;;5031270;28;20169;-52
2022/08/26 04:50:37;;;;;;;11.93;10.07;;;22.30;99.90;;;;;;5030037;28;20179;-51
2022/08/26 04:53:03;;;;;;;12.02;9.77;;;22.30;99.90;;;;;;5031134;28;20185;-56
2022/08/26 04:55:29;;;;;;;10.63;9.57;;;22.20;99.90;;;;;;5030759;28;20307;-52
2022/08/26 04:57:56;;;;;;;10.80;9.30;;;22.30;99.90;;;;;;5031171;28;20266;-49
2022/08/26 05:00:22;;;;;;;11.70;9.25;;;22.30;99.90;;;;;;5031226;28;20172;-50
2022/08/26 05:02:48;;;;;;;12.15;9.20;;;22.30;99.90;;;;;;5030979;28;20192;-54
2022/08/26 05:05:13;;;;;;;14.50;9.55;;;22.30;99.90;;;;;;5030539;28;20185;-50
2022/08/26 05:07:39;;;;;;;9.88;8.88;;;22.30;99.90;;;;;;5031092;28;20223;-49
2022/08/26 05:10:06;;;;;;;13.93;9.25;;;22.30;99.90;;;;;;5030964;28;20270;-50
2022/08/26 05:12:31;;;;;;;10.10;9.10;;;22.30;99.90;;;;;;5030817;28;20201;-51
2022/08/26 05:14:58;;;;;;;12.38;8.82;;;22.30;99.90;;;;;;5030692;28;20201;-51
2022/08/26 05:17:23;;;;;;;11.65;8.68;;;22.30;99.90;;;;;;5030916;28;20171;-51
2022/08/26 05:19:49;;;;;;;10.45;8.82;;;22.40;99.90;;;;;;5030797;28;20180;-53
2022/08/26 05:22:15;;;;;;;9.52;8.57;;;22.40;99.90;;;;;;5013140;28;20246;-52
2022/08/26 05:24:42;;;;;;;11.50;9.50;;;22.40;99.90;;;;;;5030562;28;20189;-52
2022/08/26 05:27:08;;;;;;;14.45;11.20;;;22.40;99.90;;;;;;5031126;28;20598;-52
2022/08/26 05:29:34;;;;;;;12.38;10.82;;;22.50;99.90;;;;;;5030850;28;20641;-52
2022/08/26 05:32:00;;;;;;;12.43;9.13;;;22.50;99.90;;;;;;5030707;28;20204;-50
2022/08/26 05:34:26;;;;;;;10.38;9.38;;;22.50;99.90;;;;;;5030305;28;20670;-53
2022/08/26 05:36:52;;;;;;;10.07;8.95;;;22.50;99.90;;;;;;5030786;28;20713;-52
2022/08/26 05:39:18;;;;;;;10.88;8.82;;;22.50;99.90;;;;;;5030923;28;20551;-49
2022/08/26 05:41:44;;;;;;;11.07;8.57;;;22.50;99.90;;;;;;5030760;28;20193;-50
2022/08/26 05:44:11;;;;;;;11.73;9.10;;;22.50;99.90;;;;;;5030289;28;20224;-52
2022/08/26 05:46:39;;;;;;;11.80;9.20;;;22.50;99.90;;;;;;5032173;28;20181;-56
2022/08/26 05:49:05;;;;;;;9.35;8.43;;;22.50;99.90;;;;;;5034586;28;20181;-49
2022/08/26 05:51:32;;;;;;;11.63;9.07;;;22.60;99.90;;;;;;5034470;28;20182;-53
2022/08/26 05:53:59;;;;;;;12.50;9.20;;;22.60;99.90;;;;;;5034197;28;20661;-52
2022/08/26 05:56:26;;;;;;;11.98;10.27;;;22.60;99.90;;;;;;5034470;28;20181;-50
2022/08/26 05:58:53;;;;;;;10.63;9.57;;;22.60;99.90;;;;;;5034631;28;20174;-51
2022/08/26 06:01:22;;;;;;;11.82;10.13;;;22.60;99.90;;;;;;5030811;28;20238;-52
2022/08/26 06:03:50;;;;;;;13.07;10.77;;;22.60;99.90;;;;;;5030323;28;20169;-51
2022/08/26 06:06:21;;;;;;;10.55;9.43;;;22.60;99.90;;;;;;5014523;28;20198;-52
2022/08/26 06:08:47;;;;;;;10.88;9.80;;;22.50;99.90;;;;;;5014464;28;20214;-50
2022/08/26 06:11:16;;;;;;;11.43;10.13;;;22.50;99.90;;;;;;5014479;28;20178;-50
2022/08/26 06:13:42;;;;;;;11.00;9.90;;;22.60;99.90;;;;;;5014094;28;20211;-52
2022/08/26 06:16:10;;;;;;;11.77;10.18;;;22.70;99.90;;;;;;5014425;28;20256;-49
2022/08/26 06:18:39;;;;;;;13.25;10.35;;;22.70;99.90;;;;;;5014230;28;20222;-50
2022/08/26 06:21:12;;;;;;;13.45;10.82;;;22.80;99.90;;;;;;5014273;28;20594;-54
2022/08/26 06:26:23;;;;;;;13.65;10.38;;;22.90;99.90;;;;;;5014546;28;20225;-51
2022/08/26 06:28:48;;;;;;;10.98;9.68;;;22.80;99.90;;;;;;5014348;28;20180;-51
2022/08/26 06:31:14;;;;;;;10.98;9.88;;;22.70;99.90;;;;;;5014292;28;20175;-52
2022/08/26 06:33:42;;;;;;;11.68;9.73;;;22.70;99.90;;;;;;5013516;28;20605;-55
2022/08/26 06:36:08;;;;;;;12.18;9.85;;;22.70;99.90;;;;;;5014094;28;20614;-54
2022/08/26 06:38:33;;;;;;;11.45;10.27;;;22.70;99.90;;;;;;5014060;28;20171;-54
2022/08/26 06:40:59;;;;;;;10.43;9.32;;;22.70;99.90;;;;;;5014059;28;20172;-54
2022/08/26 06:43:26;;;;;;;12.25;9.90;;;22.80;99.90;;;;;;5013673;28;20191;-55
2022/08/26 06:46:04;;;;;;;12.18;10.45;;;22.90;99.90;;;;;;5013821;28;20196;-54
2022/08/26 06:48:30;;;;;;;11.98;9.88;;;23.00;99.90;;;;;;5013713;28;20153;-52
2022/08/26 06:51:14;;;;;;;11.32;9.65;;;23.00;99.90;;;;;;5013906;28;20176;-53
2022/08/26 06:53:41;;;;;;;10.40;9.30;;;23.00;99.90;;;;;;5013349;28;20201;-50
2022/08/26 06:56:09;;;;;;;11.63;10.25;;;23.00;99.90;;;;;;5013775;28;20169;-53
2022/08/26 06:58:36;;;;;;;11.40;10.20;;;23.10;99.90;;;;;;5012773;28;20608;-55
2022/08/26 07:01:03;;;;;;;11.80;10.70;;;23.00;99.90;;;;;;5013637;28;20169;-52
2022/08/26 07:03:29;;;;;;;11.43;9.82;;;23.00;99.90;;;;;;5013071;28;20197;-55
2022/08/26 07:06:03;;;;;;;14.18;10.82;;;23.00;99.90;;;;;;5013549;28;20176;-52
2022/08/26 07:08:29;;;;;;;10.90;9.45;;;23.00;99.90;;;;;;5013557;28;20662;-50
2022/08/26 07:10:55;;;;;;;11.85;9.70;;;23.10;99.90;;;;;;5013394;28;20181;-55
2022/08/26 07:13:22;;;;;;;11.07;9.98;;;23.20;99.90;;;;;;5013062;28;20185;-55
2022/08/26 07:15:47;;;;;;;9.93;8.90;;;23.30;99.90;;;;;;5013209;28;20255;-52
2022/08/26 07:18:13;;;;;;;11.02;9.43;;;23.40;99.90;;;;;;5013230;28;20204;-53
2022/08/26 07:20:40;;;;;;;11.80;10.65;;;23.40;99.90;;;;;;5013273;28;20192;-56
2022/08/26 07:23:09;;;;;;;11.45;10.35;;;23.60;99.90;;;;;;5012961;28;20274;-56
2022/08/26 07:25:39;;;;;;;11.63;9.60;;;23.60;99.90;;;;;;5012800;28;20165;-52
2022/08/26 07:28:05;;;;;;;10.43;9.32;;;23.70;99.90;;;;;;5013383;28;20212;-54
2022/08/26 07:30:31;;;;;;;10.07;9.05;;;23.80;99.90;;;;;;5012937;28;20256;-56
2022/08/26 07:32:57;;;;;;;9.77;8.70;;;23.90;99.90;;;;;;5012934;28;20196;-56
2022/08/26 07:35:24;;;;;;;10.05;9.05;;;24.00;99.90;;;;;;5012628;28;20777;-51
2022/08/26 07:37:50;;;;;;;9.82;8.80;;;24.20;99.90;;;;;;5012943;28;20215;-57
2022/08/26 07:40:16;;;;;;;10.85;9.57;;;24.30;99.90;;;;;;5012744;28;20702;-54
2022/08/26 07:42:41;;;;;;;10.93;9.65;;;24.30;99.90;;;;;;5013183;28;20292;-53
2022/08/26 07:45:07;;;;;;;10.25;9.25;;;24.30;99.90;;;;;;5012512;28;20226;-52
2022/08/26 07:47:33;;;;;;;10.85;9.70;;;24.30;99.90;;;;;;5012672;28;20180;-56
2022/08/26 07:49:58;;;;;;;10.35;9.32;;;24.30;99.90;;;;;;5012869;28;20630;-53
2022/08/26 07:52:26;;;;;;;11.13;9.75;;;24.30;99.90;;;;;;5012620;28;20193;-54
2022/08/26 07:54:52;;;;;;;9.93;8.90;;;24.40;99.90;;;;;;5012266;28;20679;-54
2022/08/26 07:57:18;;;;;;;11.05;9.48;;;24.40;99.90;;;;;;5012642;28;20165;-56
2022/08/26 07:59:43;;;;;;;9.80;8.82;;;24.40;99.90;;;;;;5012635;28;20180;-53
2022/08/26 08:02:09;;;;;;;12.57;10.10;;;24.50;99.90;;;;;;5012237;28;20215;-54
2022/08/26 08:04:35;;;;;;;13.40;10.02;;;24.50;99.90;;;;;;5012156;28;20176;-53
2022/08/26 08:07:00;;;;;;;13.18;9.95;;;24.60;99.90;;;;;;5012453;28;20187;-55
2022/08/26 08:09:27;;;;;;;10.82;9.23;;;24.70;99.90;;;;;;5012384;28;20169;-52
2022/08/26 08:11:53;;;;;;;10.60;9.38;;;24.80;99.90;;;;;;5012304;28;20630;-51
2022/08/26 08:14:19;;;;;;;13.70;10.27;;;24.90;99.90;;;;;;5012031;28;20284;-51
2022/08/26 08:16:45;;;;;;;12.15;9.90;;;24.90;99.90;;;;;;5012289;28;20188;-53
2022/08/26 08:19:10;;;;;;;12.52;10.05;;;24.90;99.90;;;;;;5012094;28;20169;-51
2022/08/26 08:21:36;;;;;;;11.57;9.95;;;25.00;99.90;;;;;;5012026;28;20176;-49
2022/08/26 08:24:02;;;;;;;14.73;10.25;;;25.00;99.90;;;;;;5011764;28;20527;-53
2022/08/26 08:26:27;;;;;;;14.25;10.23;;;25.10;99.90;;;;;;5012031;28;20169;-51
2022/08/26 08:28:55;;;;;;;12.35;10.52;;;25.20;99.90;;;;;;5012029;28;20585;-53
2022/08/26 08:31:26;;;;;;;11.48;9.15;;;25.20;99.90;;;;;;5012058;28;20227;-49
2022/08/26 08:33:52;;;;;;;11.43;9.88;;;25.20;99.90;;;;;;5011532;28;20188;-49
2022/08/26 08:36:18;;;;;;;12.13;9.80;;;25.20;99.90;;;;;;5011905;28;20200;-52
2022/08/26 08:38:44;;;;;;;12.07;9.35;;;25.30;99.90;;;;;;5011823;28;20659;-52
2022/08/26 08:41:36;;;;;;;10.38;9.38;;;25.40;99.90;;;;;;5011882;28;20169;-50
2022/08/26 08:44:02;;;;;;;9.90;8.65;;;25.60;99.90;;;;;;4989457;28;20197;-50
2022/08/26 08:46:30;;;;;;;10.43;8.93;;;25.80;99.90;;;;;;4989807;28;20320;-55
2022/08/26 08:48:58;;;;;;;10.18;9.18;;;26.10;99.90;;;;;;4989506;28;20792;-52
2022/08/26 08:51:38;;;;;;;9.57;8.43;;;26.20;99.90;;;;;;4989717;28;20200;-50
2022/08/26 08:54:05;;;;;;;9.20;8.20;;;26.40;99.90;;;;;;4989329;28;20248;-52
2022/08/26 08:56:36;;;;;;;10.93;8.15;;;26.60;99.90;;;;;;4989606;28;20709;-52
2022/08/26 08:59:13;;;;;;;8.02;7.25;;;26.90;99.90;;;;;;4989526;28;20285;-53
2022/08/26 09:01:44;;;;;;;8.13;6.85;;;27.20;99.90;;;;;;4989442;28;20181;-50
2022/08/26 09:04:30;;;;;;;9.82;7.00;;;27.60;99.90;;;;;;4989167;28;20683;-52
2022/08/26 09:07:00;;;;;;;7.18;6.57;;;27.80;99.90;;;;;;4989474;28;20272;-56
2022/08/26 09:09:44;;;;;;;8.65;6.40;;;27.90;99.90;;;;;;4989536;28;20213;-53
2022/08/26 09:12:19;;;;;;;8.93;6.53;;;27.80;99.90;;;;;;4989390;28;20193;-54
2022/08/26 09:14:46;;;;;;;9.30;6.80;;;28.00;99.90;;;;;;4988976;28;20215;-53
2022/08/26 09:17:54;;;;;;;7.80;6.45;;;28.10;99.90;;;;;;4973210;28;20713;-53
2022/08/26 09:20:32;;;;;;;7.10;6.43;;;28.30;99.90;;;;;;4923237;28;20194;-53
2022/08/26 09:22:58;;;;;;;7.28;6.25;;;28.30;99.90;;;;;;4950180;28;20886;-50
2022/08/26 09:25:24;;;;;;;7.90;7.10;;;28.30;99.90;;;;;;4949863;28;20262;-52
2022/08/26 09:27:52;;;;;;;8.35;7.18;;;28.30;99.90;;;;;;4949883;28;20193;-52
2022/08/26 09:30:31;;;;;;;7.72;6.22;;;28.30;99.90;;;;;;4950426;29;20645;-51
2022/08/26 09:33:06;;;;;;;8.20;7.03;;;28.40;99.90;;;;;;4950338;28;20206;-54
2022/08/26 09:35:40;;;;;;;8.05;7.18;;;28.40;99.90;;;;;;4950409;29;20776;-52
2022/08/26 09:38:31;;;;;;;8.07;7.28;;;28.50;99.90;;;;;;4950536;29;20166;-52
2022/08/26 09:41:03;;;;;;;9.05;6.25;;;28.30;99.90;;;;;;4950422;29;20179;-50
2022/08/26 09:43:28;;;;;;;10.35;7.38;;;28.30;99.90;;;;;;4949746;28;20250;-53
2022/08/26 09:46:11;;;;;;;8.23;6.68;;;28.20;99.90;;;;;;4950130;29;20171;-54
2022/08/26 09:48:38;;;;;;;6.97;6.35;;;28.30;99.90;;;;;;4950241;29;20342;-52
2022/08/26 09:51:34;;;;;;;7.22;6.32;;;28.40;99.90;;;;;;4950637;29;20578;-54
2022/08/26 09:54:02;;;;;;;7.10;6.40;;;28.60;99.90;;;;;;4975339;28;20212;-56
2022/08/26 09:56:33;;;;;;;9.10;6.68;;;29.00;99.90;;;;;;5010857;28;20173;-56
2022/08/26 09:59:00;;;;;;;7.88;5.95;;;29.30;99.90;;;;;;5010926;28;20155;-57
2022/08/26 10:01:40;;;;;;;8.88;6.43;;;29.60;99.90;;;;;;5010884;28;20192;-52
2022/08/26 10:04:11;;;;;;;9.52;6.85;;;29.50;99.90;;;;;;5010314;28;20172;-54
2022/08/26 10:07:01;;;;;;;8.82;6.57;;;29.60;99.90;;;;;;5010827;28;20172;-53
2022/08/26 10:09:32;;;;;;;7.57;6.63;;;29.30;99.90;;;;;;5010313;28;20750;-57
2022/08/26 10:12:02;;;;;;;8.45;6.05;;;28.80;99.90;;;;;;5010663;28;20254;-57
2022/08/26 10:14:35;;;;;;;6.72;5.90;;;28.50;99.90;;;;;;5010268;28;20266;-55
2022/08/26 10:17:07;;;;;;;6.88;6.22;;;28.40;99.90;;;;;;5010855;28;20177;-50
2022/08/26 10:19:43;;;;;;;6.40;5.80;;;28.50;99.90;;;;;;5010730;28;20218;-54
